This is the latest recevied weather packets stored in our database for station/object DK0GS-10. If no packets are shown the sender has not sent any weather packets the latest 10 day(s).
| Time | Temp. | Humidity | Pressure | Rain* | Wind** | Luminosity | Snow |
|---|---|---|---|---|---|---|---|
| 1777723521 | 24.44° C | 37% | 1017.8 hPa | 0 mm | - | - | - |
| 1777722321 | 23.89° C | 36% | 1018.2 hPa | 0 mm | - | - | - |
| 1777721121 | 23.89° C | 35% | 1018.4 hPa | 0 mm | - | - | - |
| 1777706123 | 17.22° C | 51% | 1020.5 hPa | 0 mm | - | - | - |
| 1777705537 | 17.22° C | 52% | 1020.6 hPa | 0 mm | - | - | - |
| 1777703148 | 16.11° C | 56% | 1020.7 hPa | 0 mm | - | - | - |
| 1777701923 | 15.56° C | 56% | 1020.8 hPa | 0 mm | - | - | - |
| 1777701348 | 15.56° C | 55% | 1020.8 hPa | 0 mm | - | - | - |
| 1777698923 | 14.44° C | 57% | 1021.1 hPa | 0 mm | - | - | - |
| 1777689322 | 11.11° C | 70% | 1021.6 hPa | 0 mm | - | - | - |
| 1777685722 | 13.33° C | 62% | 1022 hPa | 0 mm | - | - | - |
| 1777685122 | 13.33° C | 62% | 1022 hPa | 0 mm | - | - | - |
| 1777682722 | 13.89° C | 60% | 1022.3 hPa | 0 mm | - | - | - |
| 1777676723 | 13.33° C | 61% | 1022.8 hPa | 0 mm | - | - | - |
| 1777674925 | 13.33° C | 61% | 1023 hPa | 0 mm | - | - | - |
| 1777673736 | 13.89° C | 59% | 1022.9 hPa | 0 mm | - | - | - |
| 1777671322 | 13.33° C | 61% | 1022.8 hPa | 0 mm | - | - | - |
| 1777670122 | 11.67° C | 70% | 1022.8 hPa | 0 mm | - | - | - |
| 1777668947 | 11.11° C | 70% | 1022.9 hPa | 0 mm | - | - | - |
| 1777666547 | 12.78° C | 65% | 1023.2 hPa | 0 mm | - | - | - |
| 1777658122 | 19.44° C | 43% | 1023.4 hPa | 0 mm | - | - | - |
| 1777656923 | 20° C | 41% | 1023.4 hPa | 0 mm | - | - | - |
| 1777643721 | 22.22° C | 35% | 1025.4 hPa | 0 mm | - | - | - |
| 1777641921 | 21.67° C | 35% | 1025.6 hPa | 0 mm | - | - | - |
| 1777639523 | 21.11° C | 37% | 1026.2 hPa | 0 mm | - | - | - |
* Rain latest hour (hover to see other rain measurements)
** Current wind speed in m/s (hover to see current wind gust speed)